createdAt,value
2019-01-12T00:04:11.964Z,2.73
2019-01-12T00:09:16.721Z,0.50
2019-01-12T00:14:19.444Z,4.50
2019-01-12T00:19:24.169Z,2.63
2019-01-12T00:24:31.663Z,4.93
2019-01-12T00:29:33.578Z,0.90
2019-01-12T00:34:38.370Z,1.13
2019-01-12T00:39:47.314Z,0.87
2019-01-12T00:44:49.997Z,1.37
2019-01-12T00:49:52.795Z,1.87
2019-01-12T00:54:57.564Z,2.63
2019-01-12T01:00:02.339Z,0.70
2019-01-12T01:05:07.755Z,1.67
2019-01-12T01:10:14.703Z,3.20
2019-01-12T01:15:18.237Z,19.27
2019-01-12T01:20:20.931Z,4.33
2019-01-12T01:25:25.763Z,0.87
2019-01-12T01:30:28.448Z,3.37
2019-01-12T01:35:35.133Z,2.13
2019-01-12T01:40:37.881Z,2.70
2019-01-12T01:45:40.699Z,3.07
2019-01-12T01:50:45.707Z,3.20
2019-01-12T01:55:48.355Z,4.30
2019-01-12T02:00:51.014Z,1.07
2019-01-12T02:05:59.899Z,1.67
2019-01-12T02:11:04.629Z,3.33
2019-01-12T02:16:13.406Z,1.60
2019-01-12T02:21:18.214Z,3.40
2019-01-12T02:26:24.851Z,3.70
2019-01-12T02:31:27.508Z,3.00
2019-01-12T02:36:32.235Z,4.37
2019-01-12T02:41:37.200Z,3.50
2019-01-12T02:46:41.954Z,1.43
2019-01-12T02:51:48.747Z,3.40
2019-01-12T02:56:54.061Z,6.57
2019-01-12T03:01:58.855Z,3.63
2019-01-12T03:07:07.819Z,3.20
2019-01-12T03:17:19.455Z,6.43
2019-01-12T03:22:24.340Z,5.30
2019-01-12T03:27:31.136Z,4.50
2019-01-12T03:32:35.782Z,3.63
2019-01-12T03:37:38.415Z,4.83
2019-01-12T03:42:41.115Z,2.10
2019-01-12T03:47:45.940Z,4.17
2019-01-12T03:52:48.742Z,0.83
2019-01-12T03:57:51.684Z,8.33
2019-01-12T04:02:56.551Z,7.53
2019-01-12T04:07:59.242Z,2.90
2019-01-12T04:13:03.899Z,4.23
2019-01-12T04:18:06.770Z,3.23
2019-01-12T04:23:11.713Z,2.93
2019-01-12T04:28:18.590Z,3.50
2019-01-12T04:33:21.320Z,2.13
2019-01-12T04:38:24.067Z,1.57
2019-01-12T04:43:28.796Z,2.60
2019-01-12T04:48:33.507Z,2.70
2019-01-12T04:53:40.140Z,4.17
2019-01-12T04:58:42.853Z,1.33
2019-01-12T05:03:45.588Z,3.33
2019-01-12T05:08:50.431Z,3.97
2019-01-12T05:13:55.289Z,1.73
2019-01-12T05:19:00.124Z,2.57
2019-01-12T05:24:04.824Z,2.90
2019-01-12T05:29:09.614Z,3.40
2019-01-12T05:34:12.363Z,4.43
2019-01-12T05:39:17.113Z,6.20
2019-01-12T05:44:19.773Z,3.80
2019-01-12T05:49:24.441Z,2.90
2019-01-12T05:54:29.321Z,13.93
2019-01-12T05:59:34.024Z,8.50
2019-01-12T06:04:36.650Z,3.03
2019-01-12T06:09:43.573Z,3.53
2019-01-12T06:14:48.366Z,1.43
2019-01-12T06:19:53.119Z,4.50
2019-01-12T06:24:58.453Z,4.73
2019-01-12T06:30:03.184Z,5.87
2019-01-12T06:35:06.248Z,17.50
2019-01-12T06:40:11.593Z,9.83
2019-01-12T06:45:16.904Z,3.93
2019-01-12T06:50:25.939Z,3.63
2019-01-12T06:55:30.670Z,7.90
2019-01-12T07:00:35.398Z,4.03
2019-01-12T07:05:38.019Z,7.97
2019-01-12T07:10:42.735Z,5.33
2019-01-12T07:15:45.408Z,2.90
2019-01-12T07:20:50.110Z,5.30
2019-01-12T07:25:58.863Z,6.43
2019-01-12T07:31:03.688Z,5.40
2019-01-12T07:36:08.438Z,6.20
2019-01-12T07:41:15.175Z,4.57
2019-01-12T07:46:17.953Z,5.23
2019-01-12T07:51:20.640Z,4.27
2019-01-12T07:56:24.582Z,6.27
2019-01-12T08:01:27.659Z,4.53
2019-01-12T08:06:30.478Z,3.67
2019-01-12T08:11:33.319Z,9.30
2019-01-12T08:16:37.993Z,8.70
2019-01-12T08:21:40.674Z,6.13
2019-01-12T08:26:43.374Z,22.60
2019-01-12T08:31:46.104Z,7.37
2019-01-12T08:36:48.701Z,6.47
2019-01-12T08:41:51.334Z,7.20
2019-01-12T08:46:56.005Z,3.70
2019-01-12T08:51:58.860Z,9.97
2019-01-12T08:57:01.697Z,7.53
2019-01-12T09:02:06.704Z,6.77
2019-01-12T09:07:11.544Z,2.73
2019-01-12T09:12:19.129Z,4.50
2019-01-12T09:17:21.924Z,4.33
2019-01-12T09:22:24.573Z,4.77
2019-01-12T09:27:29.354Z,4.53
2019-01-12T09:32:31.929Z,3.23
2019-01-12T09:37:36.593Z,16.80
2019-01-12T09:42:39.303Z,2.57
2019-01-12T09:47:44.194Z,5.70
2019-01-12T09:52:47.343Z,2.07
2019-01-12T09:57:50.539Z,7.53
2019-01-12T10:02:53.273Z,6.37
2019-01-12T10:07:56.060Z,3.57
2019-01-12T10:13:00.109Z,1.60
2019-01-12T10:18:03.061Z,9.67
2019-01-12T10:23:05.858Z,5.20
2019-01-12T10:28:08.561Z,5.80
2019-01-12T10:33:11.391Z,5.53
2019-01-12T10:38:14.300Z,7.13
2019-01-12T10:43:17.776Z,5.00
2019-01-12T10:48:20.503Z,0.67
2019-01-12T10:53:23.331Z,7.37
2019-01-12T10:58:26.292Z,5.53
2019-01-12T11:03:29.305Z,17.03
2019-01-12T11:08:32.175Z,2.67
2019-01-12T11:13:37.701Z,5.77
2019-01-12T11:18:40.596Z,9.03
2019-01-12T11:23:43.437Z,10.73
2019-01-12T11:28:46.332Z,7.47
2019-01-12T11:33:49.082Z,10.70
2019-01-12T11:38:51.811Z,5.83
2019-01-12T11:43:54.452Z,10.90
2019-01-12T11:48:57.322Z,6.80
2019-01-12T11:54:00.140Z,7.63
2019-01-12T11:59:02.939Z,5.50
2019-01-12T12:04:05.782Z,10.07
2019-01-12T12:09:08.916Z,6.90
2019-01-12T12:14:11.745Z,0.00
2019-01-12T12:19:14.462Z,4.10
2019-01-12T12:24:17.334Z,8.10
2019-01-12T12:29:20.174Z,8.27
2019-01-12T12:34:23.053Z,6.37
2019-01-12T12:39:25.705Z,7.50
2019-01-12T12:44:28.435Z,13.83
2019-01-12T12:49:31.209Z,9.83
2019-01-12T12:54:34.262Z,12.33
2019-01-12T12:59:37.091Z,10.80
2019-01-12T13:04:39.885Z,9.53
2019-01-12T13:09:42.691Z,13.67
2019-01-12T13:14:45.340Z,15.93
2019-01-12T13:19:48.052Z,12.10
2019-01-12T13:24:50.907Z,9.67
2019-01-12T13:29:53.546Z,7.23
2019-01-12T13:34:56.537Z,10.63
2019-01-12T13:39:59.302Z,8.67
2019-01-12T13:45:02.170Z,7.67
2019-01-12T13:50:07.183Z,8.30
2019-01-12T13:55:12.513Z,7.63
2019-01-12T14:00:19.513Z,7.97
2019-01-12T14:05:22.662Z,9.13
2019-01-12T14:10:26.214Z,6.07
2019-01-12T14:15:29.381Z,7.33
2019-01-12T14:20:35.391Z,5.10
2019-01-12T14:25:38.139Z,10.93
2019-01-12T14:30:41.139Z,9.27
2019-01-12T14:35:44.039Z,21.97
2019-01-12T14:40:46.931Z,11.23
2019-01-12T14:45:49.888Z,10.90
2019-01-12T14:50:53.762Z,8.20
2019-01-12T14:55:56.800Z,6.57
2019-01-12T15:00:59.532Z,7.87
2019-01-12T15:06:02.462Z,8.40
2019-01-12T15:11:05.400Z,10.63
2019-01-12T15:16:08.280Z,12.40
2019-01-12T15:21:11.081Z,13.70
2019-01-12T15:26:14.085Z,12.03
2019-01-12T15:31:16.958Z,12.07
2019-01-12T15:36:20.202Z,9.40
2019-01-12T15:41:23.042Z,9.77
2019-01-12T15:46:25.881Z,11.93
2019-01-12T15:51:28.740Z,13.50
2019-01-12T15:56:31.463Z,11.47
2019-01-12T16:01:34.340Z,16.07
2019-01-12T16:06:37.122Z,14.60
2019-01-12T16:11:39.961Z,18.00
2019-01-12T16:16:42.752Z,11.27
2019-01-12T16:21:45.684Z,17.60
2019-01-12T16:26:48.541Z,20.97
2019-01-12T16:31:51.543Z,9.20
2019-01-12T16:36:54.323Z,15.00
2019-01-12T16:41:57.027Z,14.63
2019-01-12T16:46:59.761Z,11.87
2019-01-12T16:52:02.834Z,19.07
2019-01-12T16:57:05.570Z,16.03
2019-01-12T17:02:08.324Z,14.60
2019-01-12T17:07:11.195Z,13.97
2019-01-12T17:12:14.049Z,16.70
2019-01-12T17:17:16.970Z,20.20
2019-01-12T17:22:19.928Z,19.57
2019-01-12T17:27:22.751Z,17.93
2019-01-12T17:32:25.751Z,19.70
2019-01-12T17:37:28.718Z,12.87
2019-01-12T17:42:31.788Z,16.20
2019-01-12T17:47:34.608Z,16.80
2019-01-12T17:52:38.763Z,15.17
2019-01-12T17:57:41.907Z,20.07
2019-01-12T18:02:44.849Z,17.00
2019-01-12T18:07:47.810Z,16.80
2019-01-12T18:12:50.610Z,20.83
2019-01-12T18:17:53.696Z,17.43
2019-01-12T18:22:56.649Z,16.83
2019-01-12T18:27:59.789Z,14.10
2019-01-12T18:33:02.812Z,15.20
2019-01-12T18:38:05.952Z,14.93
2019-01-12T18:43:08.929Z,14.13
2019-01-12T18:48:12.010Z,19.30
2019-01-12T18:53:14.987Z,21.83
2019-01-12T18:58:17.993Z,19.83
2019-01-12T19:03:20.854Z,18.27
2019-01-12T19:08:23.911Z,17.60
2019-01-12T19:13:26.710Z,16.07
2019-01-12T19:18:29.649Z,12.33
2019-01-12T19:23:32.592Z,13.97
2019-01-12T19:28:35.559Z,13.53
2019-01-12T19:33:38.457Z,12.83
2019-01-12T19:38:41.416Z,15.67
2019-01-12T19:43:45.111Z,17.27
2019-01-12T19:48:47.908Z,18.07
2019-01-12T19:53:50.986Z,16.17
2019-01-12T19:58:53.736Z,10.47
2019-01-12T20:03:56.596Z,17.53
2019-01-12T20:08:59.346Z,21.70
2019-01-12T20:14:02.234Z,15.63
2019-01-12T20:19:05.383Z,22.57
2019-01-12T20:24:08.223Z,15.97
2019-01-12T20:29:11.211Z,18.27
2019-01-12T20:34:22.427Z,17.70
2019-01-12T20:39:35.631Z,20.17
2019-01-12T20:44:56.354Z,20.33
2019-01-12T20:50:10.581Z,20.93
2019-01-12T20:55:37.063Z,17.50
2019-01-12T21:00:54.546Z,14.67
2019-01-12T21:06:08.273Z,17.80
2019-01-12T21:11:30.848Z,21.37
2019-01-12T21:16:38.674Z,22.90
2019-01-12T21:21:41.594Z,18.33
2019-01-12T21:26:44.385Z,18.27
2019-01-12T21:31:47.088Z,19.23
2019-01-12T21:36:49.928Z,18.07
2019-01-12T21:41:52.876Z,32.07
2019-01-12T21:46:55.880Z,20.70
2019-01-12T21:51:58.926Z,16.47
2019-01-12T21:57:01.923Z,20.17
2019-01-12T22:02:05.089Z,17.83
2019-01-12T22:07:08.008Z,19.23
2019-01-12T22:12:10.848Z,14.90
2019-01-12T22:17:13.680Z,15.97
2019-01-12T22:22:16.538Z,16.63
2019-01-12T22:27:19.474Z,19.97
2019-01-12T22:32:22.319Z,14.43
2019-01-12T22:37:25.163Z,17.07
2019-01-12T22:42:27.902Z,17.43
2019-01-12T22:47:30.657Z,56.07
2019-01-12T22:52:33.391Z,64.37
2019-01-12T22:57:36.258Z,125.03
2019-01-12T23:02:39.051Z,115.63
2019-01-12T23:07:42.079Z,177.27
2019-01-12T23:12:45.098Z,178.23
2019-01-12T23:17:48.053Z,167.17
2019-01-12T23:22:50.792Z,229.60
2019-01-12T23:27:53.568Z,337.63
2019-01-12T23:32:56.445Z,293.53
2019-01-12T23:37:59.160Z,97.83
2019-01-12T23:43:01.993Z,131.33
2019-01-12T23:48:05.117Z,310.00
2019-01-12T23:53:08.015Z,341.70
2019-01-12T23:58:11.895Z,99.20
